Home > Products > Valid Products > MTR

000
SAUS45 KPUB 281557
MTRSPD
METAR KSPD 281556Z AUTO 19004KT 18/06 A3004 RMK AO1 SLP134 T01830056





000
SAUS45 KPUB 281058
MTRSPD
METAR KSPD 281056Z AUTO 29007KT 05/04 A2997 RMK AO1 SLP116 T00500039





000
SAUS45 KPUB 280557
MTRSPD
METAR KSPD 280556Z AUTO 29009KT 07/04 A2993 RMK AO1 SLP106 T00670044
10161 20067 50009





000
SAUS45 KPUB 280358
MTRSPD
METAR KSPD 280356Z AUTO 30011KT 09/06 A2992 RMK AO1 SLP103 T00940056





000
SAUS45 KPUB 280158
MTRSPD
METAR KSPD 280156Z AUTO 32011KT 12/05 A2986 RMK AO1 SLP079 T01220050





000
SAUS45 KPUB 280058
MTRSPD
METAR KSPD 280056Z AUTO 32017G26KT 14/06 A2982 RMK AO1 PK WND
32028/0038 SLP061 T01440061





000
SAUS45 KPUB 272357
MTRSPD
METAR KSPD 272356Z AUTO 32020G26KT 16/06 A2979 RMK AO1 PK WND
33033/2300 SLP055 T01610061 10183 20111 51018





000
SAUS45 KPUB 272257
MTRSPD
METAR KSPD 272256Z AUTO 32024G34KT 17/07 A2978 RMK AO1 PK WND
32039/2222 SLP050 T01670072





000
SAUS45 KPUB 271857
MTRSPD
METAR KSPD 271856Z AUTO 31020G26KT 13/06 A2976 RMK AO1 PK WND
28029/1825 SLP048 T01280061





000
SAUS45 KPUB 270658
MTRSPD
METAR KSPD 270656Z AUTO 32015KT 07/03 A2983 RMK AO1 SLP055 T00720033
402830067





000
SAUS45 KPUB 270558
MTRSPD
METAR KSPD 270556Z AUTO 32013KT 08/04 A2983 RMK AO1 PK WND
34029/0508 SLP054 T00830044 10250 20083 51020





000
SAUS45 KPUB 270258
MTRSPD
METAR KSPD 270256Z AUTO 33009KT 12/06 A2976 RMK AO1 SLP034 T01170056
51030





000
SAUS45 KPUB 270057
MTRSPD
METAR KSPD 270056Z AUTO 33022G30KT 17/06 A2973 RMK AO1 PK WND
32035/0012 WSHFT 2356 SLP025 T01670061





000
SAUS45 KPUB 262357
MTRSPD
METAR KSPD 262356Z AUTO 20020G32KT 25/M11 A2966 RMK AO1 PK WND
19034/2302 SLP995 T02501106 10283 20222 55015





000
SAUS45 KPUB 262258
MTRSPD
METAR KSPD 262256Z AUTO 20026G33KT 28/M10 A2965 RMK AO1 PK WND
19034/2220 SLP981 T02781100





000
SAUS45 KPUB 261758
MTRSPD
METAR KSPD 261756Z AUTO 23/11 A2982 RMK AO1 SLP037 T02330106 10239
20067 56013





000
SAUS45 KPUB 261658
MTRSPD
METAR KSPD 261656Z AUTO 35009G16KT 22/11 A2983 RMK AO1 SLP051
T02170106





000
SAUS45 KPUB 261257
MTRSPD
METAR KSPD 261256Z AUTO 30009KT 11/07 A2990 RMK AO1 SLP071 T01060072





000
SAUS45 KPUB 261158
MTRSPD
METAR KSPD 261156Z AUTO 26003KT 07/M03 A2988 RMK AO1 SLP069
T00671028 10189 20067 53005





000
SAUS45 KPUB 260557
MTRSPD
METAR KSPD 260556Z AUTO 23013G23KT 18/M06 A2989 RMK AO1 SLP057
T01831056 10272 20106 50001





000
SAUS45 KPUB 260157
MTRSPD
METAR KSPD 260156Z AUTO 17008KT 18/M02 A2988 RMK AO1 SLP062
T01831022





000
SAUS45 KPUB 252257
MTRSPD
METAR KSPD 252256Z AUTO 19008G18KT 28/M09 A2990 RMK AO1 SLP070
T02781089





000
SAUS45 KPUB 251857
MTRSPD
METAR KSPD 251856Z AUTO 28007KT 27/M08 A2996 RMK AO1 SLP092
T02721078





    US Dept of Commerce
    National Oceanic and Atmospheric Administration
    National Weather Service
    1325 East West Highway
    Silver Spring, MD 20910
    Page Author: NWS Internet Services Team
Disclaimer
Information Quality
Credits
Glossary
Privacy Policy
Freedom of Information Act (FOIA)
About Us
Career Opportunities